createdAt,value
2022-08-25T00:04:38.699Z,100514.97
2022-08-25T00:11:28.136Z,100520.78
2022-08-25T00:18:19.886Z,100477.66
2022-08-25T00:25:09.842Z,100524.28
2022-08-25T00:31:55.935Z,100503.38
2022-08-25T00:38:41.536Z,100529.25
2022-08-25T00:45:30.155Z,100521.81
2022-08-25T00:52:19.605Z,100521.44
2022-08-25T00:59:07.640Z,100518.22
2022-08-25T01:05:57.087Z,100526.91
2022-08-25T01:12:44.391Z,100439.78
2022-08-25T01:19:33.506Z,100522.81
2022-08-25T01:26:30.541Z,100518.09
2022-08-25T01:33:17.316Z,100527.41
2022-08-25T01:40:02.924Z,100527.88
2022-08-25T01:46:51.356Z,100533.13
2022-08-25T01:53:36.864Z,100527.03
2022-08-25T02:00:24.231Z,100526.28
2022-08-25T02:07:12.970Z,100529.13
2022-08-25T02:13:59.659Z,100528.03
2022-08-25T02:20:45.652Z,100536.09
2022-08-25T02:27:33.672Z,100531.34
2022-08-25T02:34:19.275Z,100530.28
2022-08-25T02:41:12.865Z,100529.63
2022-08-25T03:01:48.842Z,100486.59
2022-08-25T03:08:34.429Z,100530.75
2022-08-25T03:15:21.741Z,100527.56
2022-08-25T03:22:10.414Z,100516.75
2022-08-25T03:28:56.122Z,100515.16
2022-08-25T03:35:41.980Z,100513.16
2022-08-25T03:42:30.045Z,100518.81
2022-08-25T03:49:19.247Z,100464.69
2022-08-25T03:56:04.780Z,100524.16
2022-08-25T04:02:52.751Z,100509.69
2022-08-25T04:09:38.312Z,100499.69
2022-08-25T04:16:25.645Z,100508.94
2022-08-25T04:23:14.293Z,100482.41
2022-08-25T04:29:59.780Z,100508.91
2022-08-25T04:36:45.375Z,100438.66
2022-08-25T04:43:44.089Z,100514.97
2022-08-25T04:50:29.698Z,100532.63
2022-08-25T04:57:15.087Z,100525.00
2022-08-25T05:04:06.262Z,100516.13
2022-08-25T05:10:54.482Z,100520.16
2022-08-25T05:17:40.824Z,100509.72
2022-08-25T05:24:30.459Z,100508.13
2022-08-25T05:31:18.006Z,100505.31
2022-08-25T05:38:04.231Z,100501.28
2022-08-25T05:44:52.566Z,100494.88
2022-08-25T05:51:38.004Z,100496.88
2022-08-25T05:58:24.824Z,100439.44
2022-08-25T06:05:14.490Z,100490.47
2022-08-25T06:11:59.988Z,100493.66
2022-08-25T06:18:45.818Z,100486.75
2022-08-25T06:25:34.023Z,100483.91
2022-08-25T06:32:19.525Z,100493.13
2022-08-25T06:39:04.737Z,100490.97
2022-08-25T06:45:52.812Z,100484.44
2022-08-25T06:52:38.419Z,100483.44
2022-08-25T06:59:23.895Z,100469.09
2022-08-25T07:06:13.237Z,100476.00
2022-08-25T07:12:59.141Z,100465.97
2022-08-25T07:19:44.865Z,100463.75
2022-08-25T07:26:38.517Z,100451.91
2022-08-25T07:33:24.432Z,100459.41
2022-08-25T07:40:12.517Z,100413.28
2022-08-25T07:47:01.006Z,100460.53
2022-08-25T07:53:47.125Z,100459.03
2022-08-25T08:00:34.273Z,100379.19
2022-08-25T08:07:42.064Z,100455.66
2022-08-25T08:14:29.428Z,100462.56
2022-08-25T08:21:19.025Z,100452.78
2022-08-25T08:28:08.184Z,100470.56
2022-08-25T08:34:55.705Z,100425.00
2022-08-25T08:42:11.456Z,100446.78
2022-08-25T08:49:08.547Z,100462.13
2022-08-25T08:56:00.236Z,100452.94
2022-08-25T09:02:57.842Z,100454.75
2022-08-25T09:09:47.710Z,100443.00
2022-08-25T09:16:54.622Z,100439.41
2022-08-25T09:23:58.105Z,100434.94
2022-08-25T09:30:58.016Z,100418.28
2022-08-25T09:37:44.052Z,100417.88
2022-08-25T09:44:36.197Z,100404.25
2022-08-25T09:51:37.847Z,100386.88
2022-08-25T09:58:29.188Z,100343.72
2022-08-25T10:05:26.860Z,100376.41
2022-08-25T10:12:28.725Z,100363.34
2022-08-25T10:19:16.784Z,100365.22
2022-08-25T10:26:08.757Z,100356.72
2022-08-25T10:33:17.549Z,100339.22
2022-08-25T10:40:16.670Z,100281.50
2022-08-25T10:47:31.940Z,100320.84
2022-08-25T10:54:35.139Z,100324.25
2022-08-25T11:01:43.605Z,100311.84
2022-08-25T11:08:37.210Z,100302.69
2022-08-25T11:15:31.988Z,100291.72
2022-08-25T11:22:24.962Z,100279.88
2022-08-25T11:29:16.493Z,100268.00
2022-08-25T11:36:08.627Z,100264.09
2022-08-25T11:43:05.028Z,100274.22
2022-08-25T11:50:00.563Z,100275.03
2022-08-25T11:56:57.855Z,100270.53
2022-08-25T12:04:34.597Z,100259.72
2022-08-25T12:11:58.117Z,100259.00
2022-08-25T12:18:50.558Z,100264.03
2022-08-25T12:25:51.511Z,100246.19
2022-08-25T12:33:06.875Z,100234.31
2022-08-25T12:40:03.212Z,100205.25
2022-08-25T12:46:49.100Z,100237.16
2022-08-25T12:53:41.807Z,100232.19
2022-08-25T13:00:31.150Z,100225.56
2022-08-25T13:07:32.552Z,100225.78
2022-08-25T13:14:26.859Z,100204.06
2022-08-25T13:21:18.416Z,100213.31
2022-08-25T13:28:10.857Z,100183.13
2022-08-25T13:35:14.763Z,100190.78
2022-08-25T13:42:06.931Z,100181.00
2022-08-25T13:48:52.985Z,100096.72
2022-08-25T13:55:52.241Z,100169.41
2022-08-25T14:02:50.100Z,100169.47
2022-08-25T14:09:44.456Z,100164.75
2022-08-25T14:16:36.947Z,100056.38
2022-08-25T14:23:27.575Z,100147.69
2022-08-25T14:30:15.827Z,100134.53
2022-08-25T14:37:03.972Z,100118.53
2022-08-25T14:43:50.413Z,100131.19
2022-08-25T14:50:36.396Z,100121.69
2022-08-25T14:57:24.876Z,100108.38
2022-08-25T15:04:15.742Z,100105.84
2022-08-25T15:11:01.455Z,100105.66
2022-08-25T15:18:00.942Z,100040.59
2022-08-25T15:24:46.788Z,100105.63
2022-08-25T15:31:33.077Z,100099.00
2022-08-25T15:38:21.495Z,100094.72
2022-08-25T15:45:08.037Z,100097.56
2022-08-25T15:51:54.416Z,100095.50
2022-08-25T15:58:46.308Z,100080.31
2022-08-25T16:05:35.456Z,100088.56
2022-08-25T16:12:20.936Z,100085.91
2022-08-25T16:19:11.035Z,100066.44
2022-08-25T16:25:56.784Z,100075.91
2022-08-25T16:32:42.971Z,100066.44
2022-08-25T16:39:31.659Z,100058.19
2022-08-25T16:46:20.386Z,100058.34
2022-08-25T16:53:18.362Z,100063.41
2022-08-25T17:00:09.258Z,100055.63
2022-08-25T17:06:55.467Z,100064.34
2022-08-25T17:13:44.839Z,100016.69
2022-08-25T17:20:34.701Z,100067.22
2022-08-25T17:27:23.574Z,100070.53
2022-08-25T17:34:12.147Z,100061.81
2022-08-25T17:41:06.866Z,100063.69
2022-08-25T17:47:52.747Z,100069.06
2022-08-25T17:54:39.009Z,100068.91
2022-08-25T18:01:30.504Z,100069.22
2022-08-25T18:08:18.321Z,100077.78
2022-08-25T18:15:05.717Z,100078.25
2022-08-25T18:21:56.184Z,100082.34
2022-08-25T18:28:43.909Z,100084.75
2022-08-25T18:35:30.010Z,100088.69
2022-08-25T18:42:20.141Z,100076.03
2022-08-25T18:49:07.225Z,99995.38
2022-08-25T18:55:54.522Z,100089.31
2022-08-25T19:02:46.934Z,100079.31
2022-08-25T19:09:33.895Z,100094.63
2022-08-25T19:16:24.108Z,100097.25
2022-08-25T19:23:13.281Z,100096.13
2022-08-25T19:29:59.030Z,100094.81
2022-08-25T19:36:45.135Z,100098.41
2022-08-25T19:43:33.471Z,100090.44
2022-08-25T19:50:20.496Z,100093.66
2022-08-25T19:57:10.556Z,100098.22
2022-08-25T20:03:59.221Z,100106.19
2022-08-25T20:10:46.173Z,100096.25
2022-08-25T20:17:32.565Z,100118.13
2022-08-25T20:24:33.218Z,100107.25
2022-08-25T20:31:19.172Z,100026.31
2022-08-25T20:38:05.103Z,100115.88
2022-08-25T20:44:53.667Z,100102.03
2022-08-25T20:51:39.356Z,100107.81
2022-08-25T20:58:24.876Z,100111.00
2022-08-25T21:05:14.610Z,100100.59
2022-08-25T21:12:01.638Z,100106.50
2022-08-25T21:18:48.124Z,100103.88
2022-08-25T21:25:43.760Z,100107.50
2022-08-25T21:32:29.497Z,100110.31
2022-08-25T21:39:15.297Z,100038.19
2022-08-25T21:46:03.560Z,100103.34
2022-08-25T21:52:54.474Z,100079.47
2022-08-25T21:59:43.708Z,100025.81
2022-08-25T22:06:32.445Z,100103.06
2022-08-25T22:13:18.189Z,100113.16
2022-08-25T22:20:03.756Z,100107.94
2022-08-25T22:26:52.344Z,100097.50
2022-08-25T22:33:40.375Z,100097.97
2022-08-25T22:40:26.312Z,100091.59
2022-08-25T22:47:14.498Z,100085.66
2022-08-25T22:54:02.075Z,100055.53
2022-08-25T23:00:50.348Z,100085.09
2022-08-25T23:07:41.095Z,100041.97
2022-08-25T23:14:27.333Z,100079.34
2022-08-25T23:21:26.208Z,100083.06
2022-08-25T23:28:15.870Z,100067.97
2022-08-25T23:35:02.690Z,100066.22
2022-08-25T23:41:48.297Z,100072.16
2022-08-25T23:48:37.113Z,100067.22
2022-08-25T23:55:23.127Z,100074.22
